sensor_id;sensor_type;location;lat;lon;timestamp;pressure;altitude;pressure_sealevel;temperature;humidity
74372;BME280;62885;51.374;6.170;2023-12-20T00:02:09;63318.31;;;7.29;100.00
74372;BME280;62885;51.374;6.170;2023-12-20T00:04:34;63316.69;;;7.27;100.00
74372;BME280;62885;51.374;6.170;2023-12-20T00:07:00;63315.59;;;7.26;100.00
74372;BME280;62885;51.374;6.170;2023-12-20T00:09:26;63317.69;;;7.26;100.00
74372;BME280;62885;51.374;6.170;2023-12-20T00:11:52;63285.97;;;7.23;100.00
74372;BME280;62885;51.374;6.170;2023-12-20T00:14:17;63267.97;;;7.21;100.00
74372;BME280;62885;51.374;6.170;2023-12-20T00:16:42;63266.34;;;7.20;100.00
74372;BME280;62885;51.374;6.170;2023-12-20T00:19:08;63302.03;;;7.14;100.00
74372;BME280;62885;51.374;6.170;2023-12-20T00:21:33;63300.97;;;7.13;100.00
74372;BME280;62885;51.374;6.170;2023-12-20T00:23:58;63306.31;;;7.15;100.00
74372;BME280;62885;51.374;6.170;2023-12-20T00:26:24;63302.59;;;7.14;100.00
74372;BME280;62885;51.374;6.170;2023-12-20T00:28:49;63299.88;;;7.12;100.00
74372;BME280;62885;51.374;6.170;2023-12-20T00:31:14;63276.75;;;7.15;100.00
74372;BME280;62885;51.374;6.170;2023-12-20T00:33:40;63259.84;;;7.14;100.00
74372;BME280;62885;51.374;6.170;2023-12-20T00:36:08;63270.81;;;7.09;100.00
74372;BME280;62885;51.374;6.170;2023-12-20T00:38:34;63296.09;;;7.08;100.00
74372;BME280;62885;51.374;6.170;2023-12-20T00:40:59;63269.16;;;7.08;100.00
74372;BME280;62885;51.374;6.170;2023-12-20T00:43:24;63271.41;;;7.12;100.00
74372;BME280;62885;51.374;6.170;2023-12-20T00:45:50;63267.00;;;7.06;100.00
74372;BME280;62885;51.374;6.170;2023-12-20T00:48:15;63266.44;;;7.05;100.00
74372;BME280;62885;51.374;6.170;2023-12-20T00:50:40;63268.03;;;7.04;100.00
74372;BME280;62885;51.374;6.170;2023-12-20T00:53:06;63289.56;;;7.02;100.00
74372;BME280;62885;51.374;6.170;2023-12-20T00:55:31;63258.34;;;6.97;100.00
74372;BME280;62885;51.374;6.170;2023-12-20T00:57:56;63253.97;;;6.93;100.00
74372;BME280;62885;51.374;6.170;2023-12-20T01:00:22;63271.16;;;6.85;100.00
74372;BME280;62885;51.374;6.170;2023-12-20T01:02:47;63269.50;;;6.83;100.00
74372;BME280;62885;51.374;6.170;2023-12-20T01:05:14;63238.81;;;6.79;100.00
74372;BME280;62885;51.374;6.170;2023-12-20T01:07:40;63238.28;;;6.79;100.00
74372;BME280;62885;51.374;6.170;2023-12-20T01:10:05;63230.16;;;6.71;100.00
74372;BME280;62885;51.374;6.170;2023-12-20T01:12:31;63255.97;;;6.71;100.00
74372;BME280;62885;51.374;6.170;2023-12-20T01:14:56;63210.00;;;6.67;100.00
74372;BME280;62885;51.374;6.170;2023-12-20T01:17:23;63217.13;;;6.59;100.00
74372;BME280;62885;51.374;6.170;2023-12-20T01:19:48;63242.34;;;6.55;100.00
74372;BME280;62885;51.374;6.170;2023-12-20T01:22:13;63205.78;;;6.48;100.00
74372;BME280;62885;51.374;6.170;2023-12-20T01:24:38;63223.47;;;6.40;100.00
74372;BME280;62885;51.374;6.170;2023-12-20T01:27:04;63218.56;;;6.36;100.00
74372;BME280;62885;51.374;6.170;2023-12-20T01:29:29;63171.56;;;6.31;100.00
74372;BME280;62885;51.374;6.170;2023-12-20T01:31:55;63182.50;;;6.27;100.00
74372;BME280;62885;51.374;6.170;2023-12-20T01:34:20;63181.34;;;6.23;100.00
74372;BME280;62885;51.374;6.170;2023-12-20T01:36:46;63174.91;;;6.19;100.00
74372;BME280;62885;51.374;6.170;2023-12-20T01:39:11;63194.72;;;6.13;100.00
74372;BME280;62885;51.374;6.170;2023-12-20T01:41:36;63197.38;;;6.13;100.00
74372;BME280;62885;51.374;6.170;2023-12-20T01:44:02;63163.63;;;6.11;100.00
74372;BME280;62885;51.374;6.170;2023-12-20T01:46:27;63191.50;;;6.10;100.00
74372;BME280;62885;51.374;6.170;2023-12-20T01:48:53;63160.28;;;6.06;100.00
74372;BME280;62885;51.374;6.170;2023-12-20T01:51:19;63154.41;;;6.03;100.00
74372;BME280;62885;51.374;6.170;2023-12-20T01:53:45;63184.38;;;6.01;100.00
74372;BME280;62885;51.374;6.170;2023-12-20T01:56:12;63150.53;;;5.97;100.00
74372;BME280;62885;51.374;6.170;2023-12-20T01:58:44;63148.38;;;5.95;100.00
74372;BME280;62885;51.374;6.170;2023-12-20T02:01:10;63172.53;;;5.93;100.00
74372;BME280;62885;51.374;6.170;2023-12-20T02:03:36;63143.97;;;5.88;100.00
74372;BME280;62885;51.374;6.170;2023-12-20T02:06:03;63138.59;;;5.86;100.00
74372;BME280;62885;51.374;6.170;2023-12-20T02:08:28;63138.53;;;5.83;100.00
74372;BME280;62885;51.374;6.170;2023-12-20T02:10:54;63162.69;;;5.81;100.00
74372;BME280;62885;51.374;6.170;2023-12-20T02:13:20;63156.72;;;5.75;100.00
74372;BME280;62885;51.374;6.170;2023-12-20T02:15:45;63152.47;;;5.74;100.00
74372;BME280;62885;51.374;6.170;2023-12-20T02:18:10;63151.38;;;5.73;100.00
74372;BME280;62885;51.374;6.170;2023-12-20T02:20:40;63146.53;;;5.68;100.00
74372;BME280;62885;51.374;6.170;2023-12-20T02:23:05;63117.03;;;5.68;100.00
74372;BME280;62885;51.374;6.170;2023-12-20T02:25:31;63101.16;;;5.65;100.00
74372;BME280;62885;51.374;6.170;2023-12-20T02:27:56;63119.56;;;5.65;100.00
74372;BME280;62885;51.374;6.170;2023-12-20T02:30:21;63113.72;;;5.62;100.00
74372;BME280;62885;51.374;6.170;2023-12-20T02:32:47;63114.78;;;5.63;100.00
74372;BME280;62885;51.374;6.170;2023-12-20T02:35:13;63108.91;;;5.60;100.00
74372;BME280;62885;51.374;6.170;2023-12-20T02:37:39;63109.38;;;5.58;100.00
74372;BME280;62885;51.374;6.170;2023-12-20T02:40:04;63135.69;;;5.58;100.00
74372;BME280;62885;51.374;6.170;2023-12-20T02:42:30;63134.59;;;5.57;100.00
74372;BME280;62885;51.374;6.170;2023-12-20T02:44:55;63106.75;;;5.58;100.00
74372;BME280;62885;51.374;6.170;2023-12-20T02:47:21;63141.50;;;5.59;100.00
74372;BME280;62885;51.374;6.170;2023-12-20T02:49:46;63136.69;;;5.57;100.00
74372;BME280;62885;51.374;6.170;2023-12-20T02:52:11;63090.88;;;5.56;100.00
74372;BME280;62885;51.374;6.170;2023-12-20T02:54:39;63130.28;;;5.53;100.00
74372;BME280;62885;51.374;6.170;2023-12-20T02:57:04;63109.94;;;5.59;100.00
74372;BME280;62885;51.374;6.170;2023-12-20T02:59:30;63136.75;;;5.59;100.00
74372;BME280;62885;51.374;6.170;2023-12-20T03:01:55;63108.31;;;5.57;100.00
74372;BME280;62885;51.374;6.170;2023-12-20T03:04:20;63110.44;;;5.59;100.00
74372;BME280;62885;51.374;6.170;2023-12-20T03:06:46;63108.31;;;5.57;100.00
74372;BME280;62885;51.374;6.170;2023-12-20T03:09:11;63111.53;;;5.60;100.00
74372;BME280;62885;51.374;6.170;2023-12-20T03:11:37;63141.09;;;5.63;100.00
74372;BME280;62885;51.374;6.170;2023-12-20T03:14:02;63144.88;;;5.67;100.00
74372;BME280;62885;51.374;6.170;2023-12-20T03:16:28;63111.06;;;5.62;100.00
74372;BME280;62885;51.374;6.170;2023-12-20T03:18:53;63116.34;;;5.62;100.00
74372;BME280;62885;51.374;6.170;2023-12-20T03:21:18;63114.84;;;5.66;100.00
74372;BME280;62885;51.374;6.170;2023-12-20T03:23:44;63119.19;;;5.70;100.00
74372;BME280;62885;51.374;6.170;2023-12-20T03:26:10;63116.44;;;5.65;100.00
74372;BME280;62885;51.374;6.170;2023-12-20T03:28:36;63117.56;;;5.68;100.00
74372;BME280;62885;51.374;6.170;2023-12-20T03:31:02;63116.50;;;5.67;100.00
74372;BME280;62885;51.374;6.170;2023-12-20T03:33:28;63121.75;;;5.67;100.00
74372;BME280;62885;51.374;6.170;2023-12-20T03:35:53;63116.50;;;5.67;100.00
74372;BME280;62885;51.374;6.170;2023-12-20T03:38:18;63148.16;;;5.70;100.00
74372;BME280;62885;51.374;6.170;2023-12-20T03:40:44;63113.78;;;5.65;100.00
74372;BME280;62885;51.374;6.170;2023-12-20T03:43:09;63141.66;;;5.64;100.00
74372;BME280;62885;51.374;6.170;2023-12-20T03:45:34;63141.56;;;5.61;100.00
74372;BME280;62885;51.374;6.170;2023-12-20T03:48:00;63094.16;;;5.59;100.00
74372;BME280;62885;51.374;6.170;2023-12-20T03:50:26;63109.84;;;5.56;100.00
74372;BME280;62885;51.374;6.170;2023-12-20T03:52:51;63126.47;;;5.50;100.00
74372;BME280;62885;51.374;6.170;2023-12-20T03:55:17;63123.16;;;5.44;100.00
74372;BME280;62885;51.374;6.170;2023-12-20T03:57:42;63095.31;;;5.45;100.00
74372;BME280;62885;51.374;6.170;2023-12-20T04:00:08;63116.22;;;5.40;100.00
74372;BME280;62885;51.374;6.170;2023-12-20T04:02:38;63088.81;;;5.39;100.00
74372;BME280;62885;51.374;6.170;2023-12-20T04:05:03;63117.22;;;5.38;100.00
74372;BME280;62885;51.374;6.170;2023-12-20T04:07:30;63117.84;;;5.42;100.00
74372;BME280;62885;51.374;6.170;2023-12-20T04:09:55;63091.00;;;5.41;100.00
74372;BME280;62885;51.374;6.170;2023-12-20T04:12:20;63092.06;;;5.42;100.00
74372;BME280;62885;51.374;6.170;2023-12-20T04:14:46;63098.47;;;5.46;100.00
74372;BME280;62885;51.374;6.170;2023-12-20T04:17:11;63098.63;;;5.51;100.00
74372;BME280;62885;51.374;6.170;2023-12-20T04:19:36;63106.13;;;5.55;100.00
74372;BME280;62885;51.374;6.170;2023-12-20T04:22:02;63104.97;;;5.52;100.00
74372;BME280;62885;51.374;6.170;2023-12-20T04:24:27;63125.94;;;5.49;100.00
74372;BME280;62885;51.374;6.170;2023-12-20T04:26:52;63101.25;;;5.51;100.00
74372;BME280;62885;51.374;6.170;2023-12-20T04:29:18;63093.75;;;5.46;100.00
74372;BME280;62885;51.374;6.170;2023-12-20T04:31:43;63122.69;;;5.46;100.00
74372;BME280;62885;51.374;6.170;2023-12-20T04:34:08;63092.59;;;5.43;100.00
74372;BME280;62885;51.374;6.170;2023-12-20T04:36:34;63093.69;;;5.44;100.00
74372;BME280;62885;51.374;6.170;2023-12-20T04:38:59;63096.31;;;5.44;100.00
74372;BME280;62885;51.374;6.170;2023-12-20T04:41:25;63125.94;;;5.49;100.00
74372;BME280;62885;51.374;6.170;2023-12-20T04:43:50;63098.56;;;5.48;100.00
74372;BME280;62885;51.374;6.170;2023-12-20T04:46:15;63101.25;;;5.51;100.00
74372;BME280;62885;51.374;6.170;2023-12-20T04:48:41;63102.91;;;5.52;100.00
74372;BME280;62885;51.374;6.170;2023-12-20T04:51:06;63105.03;;;5.54;100.00
74372;BME280;62885;51.374;6.170;2023-12-20T04:53:31;63093.59;;;5.58;100.00
74372;BME280;62885;51.374;6.170;2023-12-20T04:55:56;63138.88;;;5.59;100.00
74372;BME280;62885;51.374;6.170;2023-12-20T04:58:22;63112.09;;;5.61;100.00
74372;BME280;62885;51.374;6.170;2023-12-20T05:00:47;63113.72;;;5.62;100.00
74372;BME280;62885;51.374;6.170;2023-12-20T05:03:13;63141.09;;;5.63;100.00
74372;BME280;62885;51.374;6.170;2023-12-20T05:05:38;63139.47;;;5.62;100.00
74372;BME280;62885;51.374;6.170;2023-12-20T05:08:07;63098.47;;;5.63;100.00
74372;BME280;62885;51.374;6.170;2023-12-20T05:10:32;63143.25;;;5.65;100.00
74372;BME280;62885;51.374;6.170;2023-12-20T05:12:57;63107.66;;;5.71;100.00
74372;BME280;62885;51.374;6.170;2023-12-20T05:15:23;63156.81;;;5.78;100.00
74372;BME280;62885;51.374;6.170;2023-12-20T05:17:48;63110.38;;;5.74;100.00
74372;BME280;62885;51.374;6.170;2023-12-20T05:20:13;63129.41;;;5.77;100.00
74372;BME280;62885;51.374;6.170;2023-12-20T05:22:40;63160.06;;;5.81;100.00
74372;BME280;62885;51.374;6.170;2023-12-20T05:25:06;63163.28;;;5.84;100.00
74372;BME280;62885;51.374;6.170;2023-12-20T05:27:31;63120.66;;;5.84;100.00
74372;BME280;62885;51.374;6.170;2023-12-20T05:29:57;63137.53;;;5.85;100.00
74372;BME280;62885;51.374;6.170;2023-12-20T05:32:23;63164.94;;;5.86;100.00
74372;BME280;62885;51.374;6.170;2023-12-20T05:34:48;63144.03;;;5.91;100.00
74372;BME280;62885;51.374;6.170;2023-12-20T05:37:14;63131.50;;;5.94;100.00
74372;BME280;62885;51.374;6.170;2023-12-20T05:39:39;63146.22;;;5.93;100.00
74372;BME280;62885;51.374;6.170;2023-12-20T05:42:05;63146.28;;;5.95;100.00
74372;BME280;62885;51.374;6.170;2023-12-20T05:44:30;63147.28;;;5.94;100.00
74372;BME280;62885;51.374;6.170;2023-12-20T05:46:55;63144.66;;;5.94;100.00
74372;BME280;62885;51.374;6.170;2023-12-20T05:49:21;63147.81;;;5.94;100.00
74372;BME280;62885;51.374;6.170;2023-12-20T05:51:47;63143.56;;;5.93;100.00
74372;BME280;62885;51.374;6.170;2023-12-20T05:54:12;63132.56;;;5.95;100.00
74372;BME280;62885;51.374;6.170;2023-12-20T05:56:37;63152.16;;;5.98;100.00
74372;BME280;62885;51.374;6.170;2023-12-20T05:59:03;63153.78;;;6.00;100.00
74372;BME280;62885;51.374;6.170;2023-12-20T06:01:28;63179.03;;;5.99;100.00
74372;BME280;62885;51.374;6.170;2023-12-20T06:03:53;63181.66;;;5.99;100.00
74372;BME280;62885;51.374;6.170;2023-12-20T06:06:19;63152.72;;;5.99;100.00
74372;BME280;62885;51.374;6.170;2023-12-20T06:08:44;63178.50;;;5.98;100.00
74372;BME280;62885;51.374;6.170;2023-12-20T06:11:10;63179.56;;;5.99;100.00
74372;BME280;62885;51.374;6.170;2023-12-20T06:13:35;63183.91;;;6.03;100.00
74372;BME280;62885;51.374;6.170;2023-12-20T06:16:00;63152.78;;;6.01;100.00
74372;BME280;62885;51.374;6.170;2023-12-20T06:18:26;63180.66;;;6.00;100.00
74372;BME280;62885;51.374;6.170;2023-12-20T06:20:51;63187.63;;;6.04;100.00
74372;BME280;62885;51.374;6.170;2023-12-20T06:23:17;63159.22;;;6.05;100.00
74372;BME280;62885;51.374;6.170;2023-12-20T06:25:42;63183.38;;;6.03;100.00
74372;BME280;62885;51.374;6.170;2023-12-20T06:28:07;63158.13;;;6.04;100.00
74372;BME280;62885;51.374;6.170;2023-12-20T06:30:35;63155.94;;;6.02;100.00
74372;BME280;62885;51.374;6.170;2023-12-20T06:33:00;63145.56;;;6.07;100.00
74372;BME280;62885;51.374;6.170;2023-12-20T06:35:26;63161.91;;;6.07;100.00
74372;BME280;62885;51.374;6.170;2023-12-20T06:37:51;63164.06;;;6.09;100.00
74372;BME280;62885;51.374;6.170;2023-12-20T06:40:17;63189.88;;;6.09;100.00
74372;BME280;62885;51.374;6.170;2023-12-20T06:42:43;63191.50;;;6.10;100.00
74372;BME280;62885;51.374;6.170;2023-12-20T06:45:09;63176.00;;;6.21;100.00
74372;BME280;62885;51.374;6.170;2023-12-20T06:47:35;63176.00;;;6.21;100.00
74372;BME280;62885;51.374;6.170;2023-12-20T06:50:00;63173.28;;;6.18;100.00
74372;BME280;62885;51.374;6.170;2023-12-20T06:52:26;63174.91;;;6.19;100.00
74372;BME280;62885;51.374;6.170;2023-12-20T06:54:52;63176.00;;;6.21;100.00
74372;BME280;62885;51.374;6.170;2023-12-20T06:57:17;63200.69;;;6.19;100.00
74372;BME280;62885;51.374;6.170;2023-12-20T06:59:42;63176.53;;;6.21;100.00
74372;BME280;62885;51.374;6.170;2023-12-20T07:02:10;63177.13;;;6.24;100.00
74372;BME280;62885;51.374;6.170;2023-12-20T07:04:40;63188.91;;;6.30;100.00
74372;BME280;62885;51.374;6.170;2023-12-20T07:07:05;63193.84;;;6.37;100.00
74372;BME280;62885;51.374;6.170;2023-12-20T07:09:32;63218.56;;;6.36;100.00
74372;BME280;62885;51.374;6.170;2023-12-20T07:11:57;63185.72;;;6.30;100.00
74372;BME280;62885;51.374;6.170;2023-12-20T07:14:23;63206.59;;;6.22;100.00
74372;BME280;62885;51.374;6.170;2023-12-20T07:16:48;63202.88;;;6.21;100.00
74372;BME280;62885;51.374;6.170;2023-12-20T07:19:14;63175.91;;;6.18;100.00
74372;BME280;62885;51.374;6.170;2023-12-20T07:21:39;63154.78;;;6.15;100.00
74372;BME280;62885;51.374;6.170;2023-12-20T07:24:05;63167.31;;;6.12;100.00
74372;BME280;62885;51.374;6.170;2023-12-20T07:26:30;63164.63;;;6.10;100.00
74372;BME280;62885;51.374;6.170;2023-12-20T07:28:55;63170.50;;;6.13;100.00
74372;BME280;62885;51.374;6.170;2023-12-20T07:31:21;63149.38;;;6.10;100.00
74372;BME280;62885;51.374;6.170;2023-12-20T07:33:46;63186.06;;;6.05;100.00
74372;BME280;62885;51.374;6.170;2023-12-20T07:36:12;63159.75;;;6.05;100.00
74372;BME280;62885;51.374;6.170;2023-12-20T07:38:37;63157.56;;;6.03;100.00
74372;BME280;62885;51.374;6.170;2023-12-20T07:41:03;63149.44;;;5.96;100.00
74372;BME280;62885;51.374;6.170;2023-12-20T07:43:28;63147.28;;;5.94;100.00
74372;BME280;62885;51.374;6.170;2023-12-20T07:45:53;63177.94;;;5.98;100.00
74372;BME280;62885;51.374;6.170;2023-12-20T07:48:19;63181.03;;;5.96;100.00
74372;BME280;62885;51.374;6.170;2023-12-20T07:50:44;63174.69;;;5.95;100.00
74372;BME280;62885;51.374;6.170;2023-12-20T07:53:10;63170.34;;;5.91;100.00
74372;BME280;62885;51.374;6.170;2023-12-20T07:55:35;63128.25;;;5.91;100.00
74372;BME280;62885;51.374;6.170;2023-12-20T07:58:00;63145.19;;;5.94;100.00
74372;BME280;62885;51.374;6.170;2023-12-20T08:00:26;63171.38;;;5.89;100.00
74372;BME280;62885;51.374;6.170;2023-12-20T08:02:52;63146.75;;;5.93;100.00
74372;BME280;62885;51.374;6.170;2023-12-20T08:05:17;63174.09;;;5.92;100.00
74372;BME280;62885;51.374;6.170;2023-12-20T08:07:43;63175.72;;;5.93;100.00
74372;BME280;62885;51.374;6.170;2023-12-20T08:10:08;63129.34;;;5.92;100.00
74372;BME280;62885;51.374;6.170;2023-12-20T08:12:34;63176.25;;;5.94;100.00
74372;BME280;62885;51.374;6.170;2023-12-20T08:14:59;63173.63;;;5.94;100.00
74372;BME280;62885;51.374;6.170;2023-12-20T08:17:25;63141.94;;;5.91;100.00
74372;BME280;62885;51.374;6.170;2023-12-20T08:19:51;63148.38;;;5.95;100.00
74372;BME280;62885;51.374;6.170;2023-12-20T08:22:16;63174.16;;;5.94;100.00
74372;BME280;62885;51.374;6.170;2023-12-20T08:24:41;63151.00;;;5.95;100.00
74372;BME280;62885;51.374;6.170;2023-12-20T08:27:07;63176.31;;;5.96;100.00
74372;BME280;62885;51.374;6.170;2023-12-20T08:29:32;63177.41;;;5.97;100.00
74372;BME280;62885;51.374;6.170;2023-12-20T08:31:57;63151.69;;;6.00;100.00
74372;BME280;62885;51.374;6.170;2023-12-20T08:34:23;63159.22;;;6.05;100.00
74372;BME280;62885;51.374;6.170;2023-12-20T08:36:50;63182.81;;;6.02;100.00
74372;BME280;62885;51.374;6.170;2023-12-20T08:39:16;63144.47;;;6.06;100.00
74372;BME280;62885;51.374;6.170;2023-12-20T08:41:41;63163.63;;;6.11;100.00
74372;BME280;62885;51.374;6.170;2023-12-20T08:44:07;63170.50;;;6.13;100.00
74372;BME280;62885;51.374;6.170;2023-12-20T08:46:32;63171.13;;;6.16;100.00
74372;BME280;62885;51.374;6.170;2023-12-20T08:48:57;63202.31;;;6.21;100.00
74372;BME280;62885;51.374;6.170;2023-12-20T08:51:22;63180.84;;;6.25;100.00
74372;BME280;62885;51.374;6.170;2023-12-20T08:53:50;63183.03;;;6.27;100.00
74372;BME280;62885;51.374;6.170;2023-12-20T08:56:16;63186.28;;;6.30;100.00
74372;BME280;62885;51.374;6.170;2023-12-20T08:58:43;63171.56;;;6.31;100.00
74372;BME280;62885;51.374;6.170;2023-12-20T09:01:08;63188.97;;;6.33;100.00
74372;BME280;62885;51.374;6.170;2023-12-20T09:03:34;63190.69;;;6.37;100.00
74372;BME280;62885;51.374;6.170;2023-12-20T09:05:59;63179.69;;;6.39;100.00
74372;BME280;62885;51.374;6.170;2023-12-20T09:08:25;63197.13;;;6.40;100.00
74372;BME280;62885;51.374;6.170;2023-12-20T09:10:50;63198.19;;;6.41;100.00
74372;BME280;62885;51.374;6.170;2023-12-20T09:13:16;63198.72;;;6.42;100.00
74372;BME280;62885;51.374;6.170;2023-12-20T09:15:41;63194.47;;;6.40;100.00
74372;BME280;62885;51.374;6.170;2023-12-20T09:18:07;63199.34;;;6.45;100.00
74372;BME280;62885;51.374;6.170;2023-12-20T09:20:33;63191.06;;;6.49;100.00
74372;BME280;62885;51.374;6.170;2023-12-20T09:22:59;63188.34;;;6.47;100.00
74372;BME280;62885;51.374;6.170;2023-12-20T09:25:24;63209.03;;;6.51;100.00
74372;BME280;62885;51.374;6.170;2023-12-20T09:27:51;63194.28;;;6.52;100.00
74372;BME280;62885;51.374;6.170;2023-12-20T09:30:17;63240.78;;;6.56;100.00
74372;BME280;62885;51.374;6.170;2023-12-20T09:32:42;63241.34;;;6.57;100.00
74372;BME280;62885;51.374;6.170;2023-12-20T09:35:08;63241.34;;;6.57;100.00
74372;BME280;62885;51.374;6.170;2023-12-20T09:37:34;63217.22;;;6.62;100.00
74372;BME280;62885;51.374;6.170;2023-12-20T09:39:59;63242.44;;;6.58;100.00
74372;BME280;62885;51.374;6.170;2023-12-20T09:44:58;63219.84;;;6.62;100.00
74372;BME280;62885;51.374;6.170;2023-12-20T09:47:24;63218.22;;;6.60;100.00
74372;BME280;62885;51.374;6.170;2023-12-20T09:49:50;63244.59;;;6.60;100.00
74372;BME280;62885;51.374;6.170;2023-12-20T09:52:18;63229.59;;;6.71;100.00
74372;BME280;62885;51.374;6.170;2023-12-20T09:54:43;63228.00;;;6.69;100.00
74372;BME280;62885;51.374;6.170;2023-12-20T09:57:09;63210.00;;;6.67;100.00
74372;BME280;62885;51.374;6.170;2023-12-20T09:59:35;63250.53;;;6.66;100.00
74372;BME280;62885;51.374;6.170;2023-12-20T10:02:01;63222.03;;;6.64;100.00
74372;BME280;62885;51.374;6.170;2023-12-20T10:04:31;63221.56;;;6.66;100.00
74372;BME280;62885;51.374;6.170;2023-12-20T10:06:57;63230.69;;;6.72;100.00
74372;BME280;62885;51.374;6.170;2023-12-20T10:09:28;63215.97;;;6.73;100.00
74372;BME280;62885;51.374;6.170;2023-12-20T10:11:55;63256.97;;;6.69;100.00
74372;BME280;62885;51.374;6.170;2023-12-20T10:14:23;63252.16;;;6.67;100.00
74372;BME280;62885;51.374;6.170;2023-12-20T10:16:49;63257.59;;;6.72;100.00
74372;BME280;62885;51.374;6.170;2023-12-20T10:19:16;63257.59;;;6.72;100.00
74372;BME280;62885;51.374;6.170;2023-12-20T10:21:42;63229.13;;;6.73;100.00
74372;BME280;62885;51.374;6.170;2023-12-20T10:24:16;63241.53;;;6.82;100.00
74372;BME280;62885;51.374;6.170;2023-12-20T10:26:42;63241.53;;;6.82;100.00
74372;BME280;62885;51.374;6.170;2023-12-20T10:29:07;63267.88;;;6.82;100.00
74372;BME280;62885;51.374;6.170;2023-12-20T10:31:34;63242.59;;;6.83;100.00
74372;BME280;62885;51.374;6.170;2023-12-20T10:34:01;63271.16;;;6.85;100.00
74372;BME280;62885;51.374;6.170;2023-12-20T10:36:31;63240.44;;;6.81;100.00
74372;BME280;62885;51.374;6.170;2023-12-20T10:38:58;63238.38;;;6.81;100.00
74372;BME280;62885;51.374;6.170;2023-12-20T10:41:29;63239.97;;;6.83;100.00
74372;BME280;62885;51.374;6.170;2023-12-20T10:43:56;63271.69;;;6.85;100.00
74372;BME280;62885;51.374;6.170;2023-12-20T10:46:23;63233.28;;;6.89;100.00
74372;BME280;62885;51.374;6.170;2023-12-20T10:48:54;63273.31;;;6.87;100.00
74372;BME280;62885;51.374;6.170;2023-12-20T10:51:20;63276.03;;;6.89;100.00
74372;BME280;62885;51.374;6.170;2023-12-20T10:53:50;63238.72;;;6.94;100.00
74372;BME280;62885;51.374;6.170;2023-12-20T10:56:17;63256.16;;;6.95;100.00
74372;BME280;62885;51.374;6.170;2023-12-20T10:58:43;63257.25;;;6.96;100.00
74372;BME280;62885;51.374;6.170;2023-12-20T11:01:12;63283.63;;;6.96;100.00
74372;BME280;62885;51.374;6.170;2023-12-20T11:03:38;63258.94;;;7.00;100.00
74372;BME280;62885;51.374;6.170;2023-12-20T11:08:52;63249.00;;;7.04;100.00
74372;BME280;62885;51.374;6.170;2023-12-20T11:11:34;63263.22;;;7.02;100.00
74372;BME280;62885;51.374;6.170;2023-12-20T11:14:07;63291.22;;;7.04;100.00
74372;BME280;62885;51.374;6.170;2023-12-20T11:16:37;63297.22;;;7.12;100.00
74372;BME280;62885;51.374;6.170;2023-12-20T11:19:05;63263.81;;;7.05;100.00
74372;BME280;62885;51.374;6.170;2023-12-20T11:21:31;63267.53;;;7.06;100.00
74372;BME280;62885;51.374;6.170;2023-12-20T11:23:56;63251.72;;;7.06;100.00
74372;BME280;62885;51.374;6.170;2023-12-20T11:26:28;63255.53;;;7.10;100.00
74372;BME280;62885;51.374;6.170;2023-12-20T11:32:00;63278.84;;;7.14;100.00
74372;BME280;62885;51.374;6.170;2023-12-20T11:34:27;63281.09;;;7.19;100.00
74372;BME280;62885;51.374;6.170;2023-12-20T11:36:58;63279.47;;;7.17;100.00
74372;BME280;62885;51.374;6.170;2023-12-20T11:39:25;63264.72;;;7.18;100.00
74372;BME280;62885;51.374;6.170;2023-12-20T11:41:50;63266.34;;;7.20;100.00
74372;BME280;62885;51.374;6.170;2023-12-20T11:44:17;63280.63;;;7.21;100.00
74372;BME280;62885;51.374;6.170;2023-12-20T11:46:44;63285.41;;;7.23;100.00
74372;BME280;62885;51.374;6.170;2023-12-20T11:49:09;63309.56;;;7.18;100.00
74372;BME280;62885;51.374;6.170;2023-12-20T11:51:34;63311.25;;;7.22;100.00
74372;BME280;62885;51.374;6.170;2023-12-20T11:54:00;63313.97;;;7.25;100.00
74372;BME280;62885;51.374;6.170;2023-12-20T11:56:27;63273.41;;;7.26;100.00
74372;BME280;62885;51.374;6.170;2023-12-20T11:58:53;63270.13;;;7.23;100.00
74372;BME280;62885;51.374;6.170;2023-12-20T12:01:19;63284.34;;;7.22;100.00
74372;BME280;62885;51.374;6.170;2023-12-20T12:03:46;63314.97;;;7.23;100.00
74372;BME280;62885;51.374;6.170;2023-12-20T12:06:12;63272.84;;;7.26;100.00
74372;BME280;62885;51.374;6.170;2023-12-20T12:08:38;63312.44;;;7.26;100.00
74372;BME280;62885;51.374;6.170;2023-12-20T12:11:03;63314.06;;;7.27;100.00
74372;BME280;62885;51.374;6.170;2023-12-20T12:13:29;63269.59;;;7.23;100.00
74372;BME280;62885;51.374;6.170;2023-12-20T12:15:54;63309.66;;;7.21;100.00
74372;BME280;62885;51.374;6.170;2023-12-20T12:18:20;63304.78;;;7.16;100.00
74372;BME280;62885;51.374;6.170;2023-12-20T12:20:45;63259.84;;;7.14;100.00
74372;BME280;62885;51.374;6.170;2023-12-20T12:23:11;63270.25;;;7.09;100.00
74372;BME280;62885;51.374;6.170;2023-12-20T12:25:36;63266.44;;;7.05;100.00
74372;BME280;62885;51.374;6.170;2023-12-20T12:28:05;63261.13;;;7.03;100.00
74372;BME280;62885;51.374;6.170;2023-12-20T12:30:30;63262.13;;;7.01;100.00
74372;BME280;62885;51.374;6.170;2023-12-20T12:32:56;63262.66;;;7.01;100.00
74372;BME280;62885;51.374;6.170;2023-12-20T12:35:23;63247.38;;;7.02;100.00
74372;BME280;62885;51.374;6.170;2023-12-20T12:37:48;63249.56;;;7.04;100.00
74372;BME280;62885;51.374;6.170;2023-12-20T12:40:15;63268.63;;;7.07;100.00
74372;BME280;62885;51.374;6.170;2023-12-20T12:42:43;63293.91;;;7.06;100.00
74372;BME280;62885;51.374;6.170;2023-12-20T12:45:09;63264.91;;;7.06;100.00
74372;BME280;62885;51.374;6.170;2023-12-20T12:47:35;63289.66;;;7.05;100.00
74372;BME280;62885;51.374;6.170;2023-12-20T12:50:01;63300.97;;;7.13;100.00
74372;BME280;62885;51.374;6.170;2023-12-20T12:52:26;63278.44;;;7.19;100.00
74372;BME280;62885;51.374;6.170;2023-12-20T12:54:52;63263.63;;;7.17;100.00
74372;BME280;62885;51.374;6.170;2023-12-20T12:57:18;63260.38;;;7.14;100.00
74372;BME280;62885;51.374;6.170;2023-12-20T12:59:44;63296.63;;;7.09;100.00
74372;BME280;62885;51.374;6.170;2023-12-20T13:02:11;63298.72;;;7.08;100.00